Aioun el Atrouss Airport


Codes: GQNA/AEO
Name: Aioun el Atrouss Airport
City: Aioun El Atrouss
Country: Mauritania
Elevation: 951 ft.
Wikipedia:

Photos at Aioun el Atrouss Airport


   Photos courtesy of SpottingLog. You can add your own sightings and photos by signing up for a free trial today.



No photos found.

Weather at Aioun el Atrouss Airport


Time (UTC)DescriptionTempratureWindCloud coverageVisibilityPressureHumidity
19-Apr-2024 06:00Few Clouds26°C11 mph, NE13%10000m1010hPa10%
19-Apr-2024 09:00Clear Sky30°C16 mph, NE1%10000m1011hPa7%
19-Apr-2024 12:00Clear Sky39°C13 mph, E0%10000m1010hPa5%
19-Apr-2024 15:00Clear Sky40°C4 mph, NE0%10000m1007hPa5%
19-Apr-2024 18:00Clear Sky40°C4 mph, NW2%10000m1006hPa5%
19-Apr-2024 21:00Clear Sky34°C9 mph, N5%10000m1008hPa7%
20-Apr-2024 00:00Clear Sky31°C11 mph, N3%10000m1008hPa8%
20-Apr-2024 03:00Few Clouds29°C11 mph, NE12%10000m1007hPa8%
20-Apr-2024 06:00Scattered Clouds27°C9 mph, NE34%10000m1007hPa8%
20-Apr-2024 09:00Scattered Clouds33°C9 mph, NE25%10000m1008hPa6%
20-Apr-2024 12:00Broken Clouds39°C9 mph, E59%10000m1007hPa4%
20-Apr-2024 15:00Broken Clouds41°C4 mph, NW63%10000m1004hPa4%
20-Apr-2024 18:00Scattered Clouds40°C7 mph, NW46%10000m1003hPa5%
20-Apr-2024 21:00Scattered Clouds35°C7 mph, NW47%10000m1005hPa7%
21-Apr-2024 00:00Few Clouds32°C7 mph, N23%10000m1004hPa8%
21-Apr-2024 03:00Clear Sky29°C9 mph, NW9%10000m1003hPa8%
21-Apr-2024 06:00Broken Clouds27°C9 mph, N53%10000m1004hPa10%
21-Apr-2024 09:00Broken Clouds33°C13 mph, NE66%10000m1006hPa9%
21-Apr-2024 12:00Broken Clouds39°C7 mph, E61%10000m1005hPa6%
21-Apr-2024 15:00Broken Clouds41°C4 mph, W72%10000m1002hPa5%
21-Apr-2024 18:00Broken Clouds40°C7 mph, W61%10000m1001hPa6%
21-Apr-2024 21:00Scattered Clouds34°C9 mph, NW45%10000m1003hPa9%
22-Apr-2024 00:00Broken Clouds32°C11 mph, W56%10000m1004hPa10%
22-Apr-2024 03:00Overcast Clouds29°C11 mph, NW95%10000m1004hPa13%
22-Apr-2024 06:00Broken Clouds26°C13 mph, N51%10000m1005hPa17%
22-Apr-2024 09:00Clear Sky31°C11 mph, NE9%10000m1007hPa14%
22-Apr-2024 12:00Clear Sky37°C2 mph, NE7%10000m1006hPa10%
22-Apr-2024 15:00Clear Sky40°C11 mph, W3%10000m1004hPa8%
22-Apr-2024 18:00Clear Sky39°C16 mph, W3%10000m1004hPa8%
22-Apr-2024 21:00Clear Sky33°C11 mph, W8%10000m1006hPa13%
23-Apr-2024 00:00Clear Sky31°C13 mph, W4%10000m1007hPa13%
23-Apr-2024 03:00Clear Sky29°C11 mph, NW0%10000m1006hPa12%
23-Apr-2024 06:00Clear Sky27°C9 mph, NW0%10000m1008hPa13%
23-Apr-2024 09:00Clear Sky32°C13 mph, N2%10000m1009hPa11%
23-Apr-2024 12:00Clear Sky38°C9 mph, NW1%10000m1008hPa8%
23-Apr-2024 15:00Clear Sky40°C9 mph, NW3%10000m1005hPa8%
23-Apr-2024 18:00Clear Sky39°C13 mph, W5%10000m1005hPa10%
23-Apr-2024 21:00Scattered Clouds34°C9 mph, W27%10000m1007hPa13%
24-Apr-2024 00:00Few Clouds32°C9 mph, W14%10000m1009hPa12%
24-Apr-2024 03:00Clear Sky29°C11 mph, NW0%10000m1007hPa12%